Terminal Aerodrome Forecast
Issued by NWS

Home | Current Version | Previous Version | Text Only | Print | Product List | Glossary On
Versions: 1 2 3 4 5 6 7 8 9 10 11 12 13 14 15 16 17 18 19 20 21 22 23 24 25 26 27
000
FTUS43 KSGF 072300
TAFBBG
TAF
KBBG 072320Z 0800/0824 00000KT 6SM -RA BR SCT008 OVC050
      TEMPO 0800/0804 4SM -SHRA BKN008 OVC050
     FM080400 00000KT 4SM -SHRA BR BKN008 OVC035
      TEMPO 0810/0814 1SM SHRA BR OVC008
     FM081500 23006KT 4SM -SHRA BR BKN010 OVC040=

USA.gov is the U.S. government's official web portal to all federal, state and local government web resources and services.